createdAt,value
2022-11-26T00:00:51.561Z,8.35
2022-11-26T00:03:29.598Z,8.32
2022-11-26T00:05:57.013Z,8.32
2022-11-26T00:08:30.233Z,8.35
2022-11-26T00:10:57.443Z,8.36
2022-11-26T00:13:26.349Z,8.32
2022-11-26T00:15:53.469Z,8.31
2022-11-26T00:18:20.295Z,8.28
2022-11-26T00:20:47.365Z,8.28
2022-11-26T00:23:21.761Z,8.25
2022-11-26T00:25:50.918Z,8.23
2022-11-26T00:28:34.826Z,8.22
2022-11-26T00:31:04.675Z,8.23
2022-11-26T00:33:31.800Z,8.22
2022-11-26T00:36:22.766Z,8.18
2022-11-26T00:38:53.652Z,8.18
2022-11-26T00:41:23.478Z,8.17
2022-11-26T00:43:50.250Z,8.18
2022-11-26T00:46:19.441Z,8.17
2022-11-26T00:48:46.343Z,8.16
2022-11-26T00:51:22.137Z,8.16
2022-11-26T00:53:48.942Z,8.16
2022-11-26T00:56:18.236Z,8.12
2022-11-26T00:58:45.379Z,8.13
2022-11-26T01:01:14.324Z,8.07
2022-11-26T01:03:43.018Z,8.12
2022-11-26T01:06:31.428Z,8.07
2022-11-26T01:08:58.250Z,8.08
2022-11-26T01:11:25.378Z,8.08
2022-11-26T01:13:53.329Z,8.02
2022-11-26T01:16:20.347Z,8.02
2022-11-26T01:18:47.990Z,8.00
2022-11-26T01:21:15.294Z,7.97
2022-11-26T01:23:42.094Z,7.95
2022-11-26T01:26:42.189Z,7.97
2022-11-26T01:29:18.886Z,7.95
2022-11-26T01:31:46.073Z,7.96
2022-11-26T01:34:12.996Z,7.93
2022-11-26T01:36:40.880Z,7.90
2022-11-26T01:39:13.275Z,7.86
2022-11-26T01:41:52.765Z,7.87
2022-11-26T01:44:24.845Z,7.84
2022-11-26T01:46:52.883Z,7.85
2022-11-26T01:49:26.900Z,7.86
2022-11-26T01:52:22.067Z,7.83
2022-11-26T01:54:48.792Z,7.80
2022-11-26T01:57:18.182Z,7.82
2022-11-26T01:59:46.959Z,7.86
2022-11-26T02:02:14.117Z,7.85
2022-11-26T02:04:45.820Z,7.85
2022-11-26T02:07:12.913Z,7.83
2022-11-26T02:09:39.709Z,7.76
2022-11-26T02:12:06.806Z,7.83
2022-11-26T02:14:38.687Z,7.83
2022-11-26T02:17:06.012Z,7.83
2022-11-26T02:20:10.374Z,7.82
2022-11-26T02:22:40.385Z,7.83
2022-11-26T02:25:35.332Z,7.78
2022-11-26T02:28:23.804Z,7.79
2022-11-26T02:31:05.759Z,7.78
2022-11-26T02:33:59.012Z,7.82
2022-11-26T02:36:33.809Z,7.79
2022-11-26T02:39:14.247Z,7.82
2022-11-26T02:41:45.608Z,7.76
2022-11-26T02:44:14.144Z,7.77
2022-11-26T02:46:40.848Z,7.76
2022-11-26T02:49:08.124Z,7.77
2022-11-26T02:51:35.124Z,7.77
2022-11-26T02:54:02.221Z,7.75
2022-11-26T02:56:28.991Z,7.80
2022-11-26T02:58:56.223Z,7.80
2022-11-26T03:01:35.511Z,7.79
2022-11-26T03:04:05.984Z,7.76
2022-11-26T03:06:33.065Z,7.71
2022-11-26T03:09:00.159Z,7.75
2022-11-26T03:11:27.496Z,7.77
2022-11-26T03:13:54.476Z,7.79
2022-11-26T03:16:21.315Z,7.79
2022-11-26T03:18:48.392Z,7.81
2022-11-26T03:21:15.099Z,7.80
2022-11-26T03:23:42.145Z,7.83
2022-11-26T03:26:08.836Z,7.79
2022-11-26T03:28:36.028Z,7.73
2022-11-26T03:31:02.739Z,7.77
2022-11-26T03:33:29.767Z,7.76
2022-11-26T03:35:56.483Z,7.74
2022-11-26T03:38:23.540Z,7.75
2022-11-26T03:40:57.592Z,7.73
2022-11-26T03:43:24.727Z,7.77
2022-11-26T03:45:51.515Z,7.76
2022-11-26T03:48:18.632Z,7.76
2022-11-26T03:50:45.364Z,7.75
2022-11-26T03:53:12.404Z,7.75
2022-11-26T03:55:39.152Z,7.80
2022-11-26T03:58:06.312Z,7.78
2022-11-26T04:00:33.072Z,7.77
2022-11-26T04:03:00.182Z,7.74
2022-11-26T04:05:26.985Z,7.76
2022-11-26T04:07:54.063Z,7.77
2022-11-26T04:10:20.859Z,7.76
2022-11-26T04:12:47.855Z,7.76
2022-11-26T04:15:14.539Z,7.74
2022-11-26T04:17:41.567Z,7.74
2022-11-26T04:20:09.031Z,7.75
2022-11-26T04:22:36.092Z,7.72
2022-11-26T04:25:02.911Z,7.78
2022-11-26T04:27:30.000Z,7.74
2022-11-26T04:29:56.724Z,7.79
2022-11-26T04:32:23.775Z,7.79
2022-11-26T04:34:50.472Z,7.75
2022-11-26T04:37:17.514Z,7.77
2022-11-26T04:39:44.242Z,7.81
2022-11-26T04:42:11.277Z,7.80
2022-11-26T04:44:38.361Z,7.76
2022-11-26T04:47:05.638Z,7.77
2022-11-26T04:49:32.380Z,7.76
2022-11-26T04:51:59.408Z,7.75
2022-11-26T04:54:26.124Z,7.78
2022-11-26T04:56:53.170Z,7.77
2022-11-26T04:59:19.884Z,7.76
2022-11-26T05:01:47.387Z,7.79
2022-11-26T05:04:14.143Z,7.76
2022-11-26T05:06:41.171Z,7.79
2022-11-26T05:09:07.918Z,7.77
2022-11-26T05:11:34.959Z,7.83
2022-11-26T05:14:01.719Z,7.82
2022-11-26T05:16:28.825Z,7.79
2022-11-26T05:18:55.631Z,7.82
2022-11-26T05:21:22.727Z,7.85
2022-11-26T05:23:49.404Z,7.81
2022-11-26T05:26:17.031Z,7.80
2022-11-26T05:28:43.767Z,7.83
2022-11-26T05:31:11.035Z,7.86
2022-11-26T05:33:37.908Z,7.84
2022-11-26T05:36:05.237Z,7.82
2022-11-26T05:38:31.979Z,7.86
2022-11-26T05:40:59.000Z,7.86
2022-11-26T05:43:25.779Z,7.86
2022-11-26T05:45:52.858Z,7.84
2022-11-26T05:48:19.567Z,7.91
2022-11-26T05:50:50.279Z,7.90
2022-11-26T05:53:21.051Z,7.89
2022-11-26T05:55:48.083Z,7.91
2022-11-26T05:58:14.812Z,7.86
2022-11-26T06:00:41.800Z,7.90
2022-11-26T06:03:08.687Z,7.93
2022-11-26T06:05:35.915Z,7.92
2022-11-26T06:08:02.728Z,7.90
2022-11-26T06:10:29.886Z,7.91
2022-11-26T06:12:56.759Z,7.96
2022-11-26T06:15:23.782Z,7.96
2022-11-26T06:17:50.474Z,7.91
2022-11-26T06:20:17.530Z,7.93
2022-11-26T06:22:44.463Z,7.92
2022-11-26T06:25:13.451Z,7.93
2022-11-26T06:27:40.531Z,7.93
2022-11-26T06:30:08.669Z,7.95
2022-11-26T06:32:35.426Z,7.93
2022-11-26T06:35:02.526Z,7.95
2022-11-26T06:37:29.237Z,7.94
2022-11-26T06:39:56.243Z,7.96
2022-11-26T06:42:22.936Z,8.03
2022-11-26T06:44:57.017Z,7.97
2022-11-26T06:47:26.491Z,7.99
2022-11-26T06:49:53.721Z,7.98
2022-11-26T06:52:20.455Z,8.05
2022-11-26T06:54:47.530Z,8.02
2022-11-26T06:57:14.298Z,8.01
2022-11-26T06:59:41.350Z,7.99
2022-11-26T07:02:09.641Z,8.01
2022-11-26T07:04:36.925Z,8.04
2022-11-26T07:07:03.904Z,8.03
2022-11-26T07:09:30.865Z,8.02
2022-11-26T07:11:57.573Z,8.07
2022-11-26T07:14:24.583Z,8.06
2022-11-26T07:16:51.308Z,8.05
2022-11-26T07:19:18.381Z,8.07
2022-11-26T07:21:45.165Z,8.08
2022-11-26T07:24:12.191Z,8.08
2022-11-26T07:26:38.932Z,8.07
2022-11-26T07:29:06.111Z,8.11
2022-11-26T07:31:32.949Z,8.09
2022-11-26T07:33:59.985Z,8.12
2022-11-26T07:36:27.529Z,8.13
2022-11-26T07:38:58.453Z,8.13
2022-11-26T07:41:25.466Z,8.15
2022-11-26T07:43:52.488Z,8.16
2022-11-26T07:46:21.653Z,8.17
2022-11-26T07:48:48.890Z,8.18
2022-11-26T07:51:20.527Z,8.24
2022-11-26T07:53:47.730Z,8.21
2022-11-26T07:56:14.914Z,8.20
2022-11-26T07:58:41.974Z,8.22
2022-11-26T08:01:10.113Z,8.20
2022-11-26T08:03:39.128Z,8.23
2022-11-26T08:06:07.723Z,8.29
2022-11-26T08:08:35.368Z,8.27
2022-11-26T08:11:03.176Z,8.28
2022-11-26T08:13:30.304Z,8.36
2022-11-26T08:15:57.090Z,8.34
2022-11-26T08:18:24.180Z,8.32
2022-11-26T08:20:57.416Z,8.34
2022-11-26T08:23:24.823Z,8.37
2022-11-26T08:26:22.736Z,8.37
2022-11-26T08:28:39.016Z,8.39
2022-11-26T08:31:07.250Z,8.42
2022-11-26T08:33:34.360Z,8.40
2022-11-26T08:36:08.876Z,8.43
2022-11-26T08:38:36.144Z,8.45
2022-11-26T08:41:04.268Z,8.47
2022-11-26T08:44:04.046Z,8.50
2022-11-26T08:46:18.248Z,8.53
2022-11-26T08:48:45.423Z,8.52
2022-11-26T08:51:12.431Z,8.56
2022-11-26T08:53:39.643Z,8.59
2022-11-26T08:56:10.971Z,8.57
2022-11-26T08:58:39.538Z,8.63
2022-11-26T09:01:14.838Z,8.71
2022-11-26T09:03:42.007Z,8.85
2022-11-26T09:06:08.921Z,8.90
2022-11-26T09:08:56.145Z,8.98
2022-11-26T09:11:23.636Z,9.10
2022-11-26T09:13:50.669Z,9.13
2022-11-26T09:16:17.604Z,9.11
2022-11-26T09:18:44.723Z,9.08
2022-11-26T09:21:11.487Z,9.00
2022-11-26T09:23:38.512Z,8.98
2022-11-26T09:26:05.399Z,9.01
2022-11-26T09:28:32.379Z,9.02
2022-11-26T09:30:59.728Z,9.03
2022-11-26T09:33:26.906Z,9.05
2022-11-26T09:35:53.626Z,9.08
2022-11-26T09:38:20.899Z,9.15
2022-11-26T09:40:49.733Z,9.09
2022-11-26T09:43:29.632Z,9.06
2022-11-26T09:45:58.722Z,9.10
2022-11-26T09:48:25.935Z,9.16
2022-11-26T09:50:56.190Z,9.20
2022-11-26T09:53:28.113Z,9.22
2022-11-26T09:55:55.542Z,9.27
2022-11-26T09:58:31.757Z,9.23
2022-11-26T10:00:59.752Z,9.18
2022-11-26T10:03:29.935Z,9.18
2022-11-26T10:06:06.618Z,9.23
2022-11-26T10:08:58.566Z,9.23
2022-11-26T10:11:59.018Z,9.38
2022-11-26T10:14:30.758Z,9.50
2022-11-26T10:17:09.593Z,9.41
2022-11-26T10:19:58.994Z,9.37
2022-11-26T10:22:28.702Z,9.57
2022-11-26T10:24:56.818Z,9.57
2022-11-26T10:27:24.725Z,9.53
2022-11-26T10:29:54.643Z,9.48
2022-11-26T10:32:26.119Z,9.52
2022-11-26T10:34:57.585Z,9.48
2022-11-26T10:37:28.437Z,9.46
2022-11-26T10:40:20.930Z,9.41
2022-11-26T10:43:05.904Z,9.41
2022-11-26T10:45:37.316Z,9.48
2022-11-26T10:48:29.885Z,9.51
2022-11-26T10:51:01.357Z,9.50
2022-11-26T10:53:29.832Z,9.50
2022-11-26T10:56:01.269Z,9.49
2022-11-26T10:58:33.273Z,9.49
2022-11-26T11:01:04.966Z,9.45
2022-11-26T11:06:28.106Z,9.49
2022-11-26T11:08:55.148Z,9.50
2022-11-26T11:11:22.277Z,9.54
2022-11-26T11:13:49.241Z,9.52
2022-11-26T11:16:22.837Z,9.55
2022-11-26T11:18:51.642Z,9.54
2022-11-26T11:21:19.134Z,9.59
2022-11-26T11:24:07.567Z,9.56
2022-11-26T11:26:40.568Z,9.58
2022-11-26T11:29:32.606Z,9.62
2022-11-26T11:32:02.142Z,9.60
2022-11-26T11:34:33.927Z,9.58
2022-11-26T11:37:05.633Z,9.63
2022-11-26T11:39:34.087Z,9.65
2022-11-26T11:42:02.559Z,9.64
2022-11-26T11:44:38.686Z,9.65
2022-11-26T11:47:21.332Z,9.71
2022-11-26T11:50:02.257Z,9.70
2022-11-26T11:52:32.206Z,9.71
2022-11-26T11:55:08.228Z,9.70
2022-11-26T11:57:56.695Z,9.69
2022-11-26T12:00:26.285Z,9.75
2022-11-26T12:03:25.508Z,9.79
2022-11-26T12:06:07.651Z,9.78
2022-11-26T12:08:58.888Z,9.82
2022-11-26T12:11:57.762Z,9.82
2022-11-26T12:14:30.885Z,9.83
2022-11-26T12:17:02.873Z,9.86
2022-11-26T12:19:43.770Z,9.92
2022-11-26T12:22:17.576Z,9.83
2022-11-26T12:24:48.481Z,9.91
2022-11-26T12:27:21.109Z,9.92
2022-11-26T12:29:52.501Z,9.88
2022-11-26T12:32:51.071Z,9.96
2022-11-26T12:35:41.193Z,9.95
2022-11-26T12:38:25.698Z,9.96
2022-11-26T12:40:58.638Z,9.99
2022-11-26T12:43:40.210Z,9.97
2022-11-26T12:46:18.636Z,9.99
2022-11-26T12:49:13.791Z,9.97
2022-11-26T12:51:58.521Z,10.01
2022-11-26T12:54:28.974Z,10.01
2022-11-26T12:56:57.401Z,10.03
2022-11-26T12:59:35.126Z,10.06
2022-11-26T13:02:14.593Z,10.02
2022-11-26T13:04:41.365Z,10.03
2022-11-26T13:07:57.917Z,10.03
2022-11-26T13:10:57.437Z,10.07
2022-11-26T13:13:39.181Z,10.07
2022-11-26T13:16:07.940Z,10.07
2022-11-26T13:18:41.589Z,10.10
2022-11-26T13:21:36.431Z,10.11
2022-11-26T13:24:40.994Z,10.10
2022-11-26T13:27:39.081Z,10.06
2022-11-26T13:30:17.804Z,10.07
2022-11-26T13:33:07.316Z,10.11
2022-11-26T13:35:47.254Z,10.08
2022-11-26T13:38:24.177Z,10.13
2022-11-26T13:41:00.268Z,10.14
2022-11-26T13:44:07.921Z,10.12
2022-11-26T13:46:38.136Z,10.12
2022-11-26T13:49:15.582Z,10.07
2022-11-26T13:51:47.756Z,10.06
2022-11-26T13:54:24.400Z,10.06
2022-11-26T13:57:01.038Z,10.09
2022-11-26T13:59:28.883Z,10.06
2022-11-26T14:01:56.235Z,10.11
2022-11-26T14:04:23.107Z,10.08
2022-11-26T14:07:05.339Z,10.09
2022-11-26T14:09:44.516Z,10.08
2022-11-26T14:12:17.690Z,10.12
2022-11-26T14:14:46.208Z,10.13
2022-11-26T14:17:20.254Z,10.14
2022-11-26T14:19:52.039Z,10.12
2022-11-26T14:22:22.221Z,10.14
2022-11-26T14:24:52.016Z,10.11
2022-11-26T14:27:32.948Z,10.17
2022-11-26T14:30:07.666Z,10.11
2022-11-26T14:32:39.231Z,10.13
2022-11-26T14:35:21.328Z,10.09
2022-11-26T14:37:55.858Z,10.09
2022-11-26T14:40:28.105Z,10.10
2022-11-26T14:43:19.409Z,10.13
2022-11-26T14:45:47.675Z,10.15
2022-11-26T14:48:28.283Z,10.12
2022-11-26T14:50:56.532Z,10.12
2022-11-26T14:53:25.166Z,10.13
2022-11-26T14:55:52.168Z,10.15
2022-11-26T14:58:21.025Z,10.12
2022-11-26T15:01:15.221Z,10.08
2022-11-26T15:03:42.417Z,10.07
2022-11-26T15:06:26.557Z,10.07
2022-11-26T15:09:15.053Z,10.09
2022-11-26T15:12:09.555Z,10.14
2022-11-26T15:14:49.920Z,10.19
2022-11-26T15:17:17.875Z,10.32
2022-11-26T15:19:44.975Z,10.37
2022-11-26T15:22:34.375Z,10.35
2022-11-26T15:25:01.439Z,10.27
2022-11-26T15:27:41.251Z,10.23
2022-11-26T15:30:22.919Z,10.18
2022-11-26T15:32:58.893Z,10.18
2022-11-26T15:35:25.968Z,10.22
2022-11-26T15:37:52.783Z,10.20
2022-11-26T15:40:25.131Z,10.21
2022-11-26T15:42:55.076Z,10.17
2022-11-26T15:45:22.850Z,10.19
2022-11-26T15:47:54.235Z,10.19
2022-11-26T15:50:30.597Z,10.21
2022-11-26T15:53:22.198Z,10.19
2022-11-26T15:55:49.356Z,10.21
2022-11-26T15:58:19.830Z,10.20
2022-11-26T16:00:53.499Z,10.19
2022-11-26T16:03:35.766Z,10.16
2022-11-26T16:06:05.086Z,10.16
2022-11-26T16:08:32.027Z,10.09
2022-11-26T16:11:05.729Z,10.17
2022-11-26T16:13:33.086Z,10.13
2022-11-26T16:16:19.546Z,10.10
2022-11-26T16:18:46.341Z,10.09
2022-11-26T16:21:18.846Z,10.12
2022-11-26T16:23:52.314Z,10.10
2022-11-26T16:26:19.505Z,10.10
2022-11-26T16:28:46.972Z,10.11
2022-11-26T16:31:14.842Z,10.07
2022-11-26T16:33:41.818Z,10.10
2022-11-26T16:36:25.454Z,10.03
2022-11-26T16:38:52.558Z,10.07
2022-11-26T16:41:20.717Z,10.06
2022-11-26T16:43:48.138Z,10.03
2022-11-26T16:46:20.987Z,10.05
2022-11-26T16:48:48.005Z,10.00
2022-11-26T16:51:15.128Z,10.00
2022-11-26T16:53:41.863Z,9.95
2022-11-26T16:56:38.415Z,9.95
2022-11-26T16:59:05.348Z,9.96
2022-11-26T17:01:33.215Z,9.96
2022-11-26T17:04:00.013Z,9.96
2022-11-26T17:06:31.324Z,9.98
2022-11-26T17:08:58.164Z,9.95
2022-11-26T17:11:25.368Z,9.93
2022-11-26T17:13:52.245Z,9.93
2022-11-26T17:16:21.032Z,9.89
2022-11-26T17:18:48.061Z,9.85
2022-11-26T17:21:15.205Z,9.92
2022-11-26T17:23:42.013Z,9.90
2022-11-26T17:26:27.291Z,9.98
2022-11-26T17:28:54.107Z,9.99
2022-11-26T17:31:21.290Z,9.98
2022-11-26T17:33:48.176Z,10.00
2022-11-26T17:36:15.255Z,10.01
2022-11-26T17:38:42.175Z,9.97
2022-11-26T17:41:11.165Z,9.98
2022-11-26T17:43:38.411Z,9.97
2022-11-26T17:46:05.834Z,9.94
2022-11-26T17:48:32.642Z,9.97
2022-11-26T17:50:59.668Z,9.93
2022-11-26T17:53:26.471Z,9.95
2022-11-26T17:55:53.551Z,9.90
2022-11-26T17:58:20.386Z,9.91
2022-11-26T18:00:47.404Z,9.94
2022-11-26T18:03:14.159Z,9.93
2022-11-26T18:05:42.436Z,9.85
2022-11-26T18:08:09.336Z,9.89
2022-11-26T18:10:39.325Z,9.82
2022-11-26T18:13:06.126Z,9.78
2022-11-26T18:15:33.209Z,9.82
2022-11-26T18:18:00.701Z,9.82
2022-11-26T18:20:28.150Z,9.79
2022-11-26T18:22:57.112Z,9.86
2022-11-26T18:25:24.401Z,9.80
2022-11-26T18:27:51.705Z,9.80
2022-11-26T18:30:19.167Z,9.78
2022-11-26T18:32:46.218Z,9.74
2022-11-26T18:35:13.439Z,9.75
2022-11-26T18:37:40.333Z,9.74
2022-11-26T18:40:08.704Z,9.73
2022-11-26T18:42:37.766Z,9.72
2022-11-26T18:45:10.140Z,9.74
2022-11-26T18:47:37.597Z,9.76
2022-11-26T18:50:05.528Z,9.76
2022-11-26T18:52:32.294Z,9.72
2022-11-26T18:55:00.094Z,9.73
2022-11-26T18:57:27.457Z,9.71
2022-11-26T18:59:54.469Z,9.72
2022-11-26T19:02:21.245Z,9.74
2022-11-26T19:04:48.393Z,9.71
2022-11-26T19:07:15.641Z,9.71
2022-11-26T19:09:43.263Z,9.72
2022-11-26T19:12:12.373Z,9.70
2022-11-26T19:14:39.468Z,9.67
2022-11-26T19:17:06.299Z,9.68
2022-11-26T19:19:33.468Z,9.65
2022-11-26T19:22:01.596Z,9.69
2022-11-26T19:24:29.913Z,9.65
2022-11-26T19:26:57.134Z,9.62
2022-11-26T19:29:24.209Z,9.64
2022-11-26T19:31:51.000Z,9.68
2022-11-26T19:34:18.312Z,9.66
2022-11-26T19:36:48.543Z,9.64
2022-11-26T19:39:16.129Z,9.65
2022-11-26T19:41:42.923Z,9.63
2022-11-26T19:44:09.995Z,9.63
2022-11-26T19:46:39.376Z,9.63
2022-11-26T19:49:07.307Z,9.62
2022-11-26T19:51:34.139Z,9.62
2022-11-26T19:54:01.183Z,9.61
2022-11-26T19:56:29.444Z,9.62
2022-11-26T19:59:00.609Z,9.61
2022-11-26T20:01:30.573Z,9.59
2022-11-26T20:04:02.911Z,9.60
2022-11-26T20:06:30.558Z,9.63
2022-11-26T20:09:00.542Z,9.60
2022-11-26T20:11:28.037Z,9.60
2022-11-26T20:13:55.417Z,9.58
2022-11-26T20:16:24.384Z,9.57
2022-11-26T20:18:51.568Z,9.58
2022-11-26T20:21:20.354Z,9.58
2022-11-26T20:23:48.470Z,9.59
2022-11-26T20:26:17.482Z,9.57
2022-11-26T20:28:44.810Z,9.58
2022-11-26T20:31:12.068Z,9.55
2022-11-26T20:33:39.170Z,9.56
2022-11-26T20:36:07.847Z,9.54
2022-11-26T20:38:35.114Z,9.56
2022-11-26T20:41:06.710Z,9.60
2022-11-26T20:43:33.834Z,9.58
2022-11-26T20:46:04.808Z,9.57
2022-11-26T20:48:32.660Z,9.55
2022-11-26T20:51:03.604Z,9.56
2022-11-26T20:53:30.986Z,9.56
2022-11-26T20:55:57.823Z,9.56
2022-11-26T20:58:25.608Z,9.54
2022-11-26T21:00:54.163Z,9.56
2022-11-26T21:03:22.173Z,9.54
2022-11-26T21:05:49.059Z,9.58
2022-11-26T21:08:16.777Z,9.55
2022-11-26T21:10:43.614Z,9.56
2022-11-26T21:13:12.378Z,9.56
2022-11-26T21:15:40.250Z,9.55
2022-11-26T21:18:07.383Z,9.54
2022-11-26T21:20:36.295Z,9.53
2022-11-26T21:23:03.459Z,9.55
2022-11-26T21:25:30.221Z,9.52
2022-11-26T21:27:57.331Z,9.51
2022-11-26T21:30:24.273Z,9.52
2022-11-26T21:32:51.493Z,9.55
2022-11-26T21:35:18.285Z,9.52
2022-11-26T21:37:45.581Z,9.50
2022-11-26T21:40:12.697Z,9.50
2022-11-26T21:42:39.817Z,9.51
2022-11-26T21:45:07.970Z,9.52
2022-11-26T21:47:35.102Z,9.52
2022-11-26T21:50:02.516Z,9.54
2022-11-26T21:52:29.573Z,9.51
2022-11-26T21:55:00.798Z,9.55
2022-11-26T21:57:31.818Z,9.53
2022-11-26T21:59:58.617Z,9.53
2022-11-26T22:02:25.737Z,9.53
2022-11-26T22:04:52.769Z,9.51
2022-11-26T22:07:21.490Z,9.59
2022-11-26T22:09:48.302Z,9.56
2022-11-26T22:12:15.330Z,9.53
2022-11-26T22:14:42.327Z,9.58
2022-11-26T22:17:09.340Z,9.56
2022-11-26T22:19:36.175Z,9.52
2022-11-26T22:22:03.263Z,9.54
2022-11-26T22:24:29.959Z,9.57
2022-11-26T22:26:57.002Z,9.54
2022-11-26T22:29:23.965Z,9.56
2022-11-26T22:31:51.121Z,9.53
2022-11-26T22:34:18.809Z,9.55
2022-11-26T22:36:45.988Z,9.54
2022-11-26T22:39:14.377Z,9.54
2022-11-26T22:41:41.945Z,9.55
2022-11-26T22:44:08.941Z,9.56
2022-11-26T22:46:38.152Z,9.55
2022-11-26T22:49:05.342Z,9.56
2022-11-26T22:51:33.301Z,9.54
2022-11-26T22:54:02.822Z,9.56
2022-11-26T22:56:30.073Z,9.54
2022-11-26T22:58:56.946Z,9.53
2022-11-26T23:01:29.620Z,9.52
2022-11-26T23:03:58.362Z,9.54
2022-11-26T23:06:26.721Z,9.54
2022-11-26T23:08:54.551Z,9.56
2022-11-26T23:11:25.409Z,9.53
2022-11-26T23:13:52.401Z,9.53
2022-11-26T23:16:20.815Z,9.51
2022-11-26T23:18:48.034Z,9.52
2022-11-26T23:21:17.269Z,9.51
2022-11-26T23:23:44.360Z,9.52
2022-11-26T23:26:13.535Z,9.50
2022-11-26T23:28:40.412Z,9.52
2022-11-26T23:31:13.205Z,9.55
2022-11-26T23:33:39.954Z,9.50
2022-11-26T23:36:07.364Z,9.52
2022-11-26T23:38:34.564Z,9.52
2022-11-26T23:41:02.604Z,9.51
2022-11-26T23:43:30.062Z,9.53
2022-11-26T23:46:07.981Z,9.56
2022-11-26T23:48:34.738Z,9.59
2022-11-26T23:51:06.117Z,9.55
2022-11-26T23:53:35.271Z,9.54
2022-11-26T23:56:06.386Z,9.56
2022-11-26T23:58:33.210Z,9.55
